Terminal Aerodrome Forecast
Issued by NWS

Home | Current Version | Previous Version | Text Only | Print | Product List | Glossary On
Versions: 1 2 3 4 5 6 7 8 9 10 11 12 13 14 15 16 17
000
FTUS43 KGRB 192300
TAFRHI
TAF
KRHI 192320Z 2000/2024 16008KT P6SM BKN035 OVC070 WS011/18040KT
      TEMPO 2000/2003 -RA
     FM200300 18007KT 6SM BR BKN035 OVC050 WS011/20040KT
      TEMPO 2003/2007 -RA
     FM201000 22004KT 2SM BR SCT008 OVC015
     FM201400 22006KT 4SM BR SCT012 OVC020
     FM201700 25005KT 6SM HZ BKN025 OVC060=

USA.gov is the U.S. government's official web portal to all federal, state and local government web resources and services.